Time;durP1;ratioP1;P1;durP2;ratioP2;P2;SDS_P1;SDS_P2;PMS_P1;PMS_P2;Temp;Humidity;BMP_temperature;BMP_pressure;BME280_temperature;BME280_humidity;BME280_pressure;Samples;Min_cycle;Max_cycle;Signal;HPM_P1;HPM_P2
2021/10/30 00:04:57;;;;;;;0.20;0.17;;;17.10;99.90;;;;;;20419265;29;20229;-75
2021/10/30 00:15:01;;;;;;;0.20;0.10;;;17.10;99.90;;;;;;20417996;29;20284;-75
2021/10/30 00:25:07;;;;;;;0.20;0.17;;;17.10;99.90;;;;;;20418007;29;20226;-77
2021/10/30 00:35:11;;;;;;;0.20;0.00;;;17.20;99.90;;;;;;20415641;29;20233;-76
2021/10/30 00:45:16;;;;;;;0.30;0.30;;;17.30;99.90;;;;;;20417378;29;20426;-75
2021/10/30 00:55:23;;;;;;;0.20;0.00;;;17.30;99.90;;;;;;20423634;29;20615;-76
2021/10/30 01:05:28;;;;;;;0.27;0.27;;;17.20;99.90;;;;;;20346580;23;20249;-70
2021/10/30 01:15:32;;;;;;;0.40;0.40;;;17.20;99.90;;;;;;20276211;29;20715;-70
2021/10/30 01:25:37;;;;;;;0.20;0.10;;;17.10;99.90;;;;;;20350602;29;20740;-70
2021/10/30 01:35:41;;;;;;;0.20;0.10;;;17.10;99.90;;;;;;20350558;29;20202;-69
2021/10/30 01:45:47;;;;;;;0.20;0.00;;;17.10;99.90;;;;;;20349245;29;20252;-68
2021/10/30 01:55:51;;;;;;;0.67;0.40;;;17.20;99.90;;;;;;20347626;29;20250;-70
2021/10/30 02:05:56;;;;;;;0.50;0.50;;;17.40;99.90;;;;;;20361453;23;20660;-77
2021/10/30 02:16:01;;;;;;;0.93;0.47;;;17.40;99.90;;;;;;20349572;29;20226;-82
2021/10/30 02:26:06;;;;;;;0.20;0.10;;;17.30;99.90;;;;;;20347549;29;20236;-75
2021/10/30 02:36:10;;;;;;;0.20;0.00;;;17.30;99.90;;;;;;20346636;29;20258;-75
2021/10/30 02:46:16;;;;;;;0.20;0.00;;;17.30;99.90;;;;;;20346679;29;20222;-76
2021/10/30 02:56:22;;;;;;;0.20;0.00;;;17.20;99.90;;;;;;20346142;29;20256;-75
2021/10/30 03:06:27;;;;;;;0.20;0.10;;;17.00;99.90;;;;;;20355396;23;20778;-71
2021/10/30 03:16:31;;;;;;;0.20;0.10;;;17.00;99.90;;;;;;20341777;29;20647;-71
2021/10/30 03:26:36;;;;;;;0.27;0.23;;;17.00;99.90;;;;;;20342872;29;20650;-70
2021/10/30 03:36:40;;;;;;;0.20;0.10;;;17.00;99.90;;;;;;20340695;29;20536;-70
2021/10/30 03:46:52;;;;;;;0.30;0.30;;;16.90;99.90;;;;;;21310824;27;20554;-71
2021/10/30 03:56:55;;;;;;;0.20;0.00;;;17.00;99.90;;;;;;21309954;27;20711;-69
2021/10/30 04:07:00;;;;;;;0.20;0.10;;;17.00;99.90;;;;;;21289904;27;20484;-66
2021/10/30 04:17:05;;;;;;;0.20;0.10;;;16.90;99.90;;;;;;21307515;27;20225;-68
2021/10/30 04:27:10;;;;;;;0.20;0.00;;;17.00;99.90;;;;;;21285470;27;20557;-69
2021/10/30 04:37:17;;;;;;;0.20;0.00;;;17.10;99.90;;;;;;21306453;27;20218;-68
2021/10/30 04:47:23;;;;;;;0.20;0.10;;;17.30;99.90;;;;;;21306058;27;20201;-68
2021/10/30 04:57:27;;;;;;;0.20;0.10;;;17.30;99.90;;;;;;21252789;27;20226;-68
2021/10/30 05:07:32;;;;;;;0.20;0.00;;;17.40;99.90;;;;;;21229180;27;20228;-69
2021/10/30 05:17:36;;;;;;;0.20;0.10;;;17.50;99.90;;;;;;21222730;27;20215;-70
2021/10/30 05:27:41;;;;;;;0.20;0.10;;;17.50;99.90;;;;;;21160680;28;20199;-68
2021/10/30 05:37:45;;;;;;;0.20;0.17;;;17.40;99.90;;;;;;21160137;28;20249;-68
2021/10/30 05:47:50;;;;;;;0.20;0.10;;;17.50;99.90;;;;;;21141495;28;20199;-68
2021/10/30 05:57:54;;;;;;;0.20;0.10;;;17.50;99.90;;;;;;21158033;28;20688;-69
2021/10/30 06:07:59;;;;;;;0.20;0.10;;;17.40;99.90;;;;;;21156319;28;20202;-68
2021/10/30 06:18:03;;;;;;;0.20;0.10;;;17.50;99.90;;;;;;21180778;27;20268;-69
2021/10/30 06:28:08;;;;;;;0.20;0.00;;;17.50;99.90;;;;;;21239714;27;20186;-68
2021/10/30 06:38:21;;;;;;;0.40;0.30;;;17.60;99.90;;;;;;21237614;27;20584;-70
2021/10/30 06:48:27;;;;;;;0.20;0.07;;;17.60;99.90;;;;;;21219249;27;20301;-69
2021/10/30 06:58:31;;;;;;;0.20;0.20;;;17.60;99.90;;;;;;21237012;27;20223;-68
2021/10/30 07:08:37;;;;;;;0.30;0.20;;;17.50;99.90;;;;;;21237057;27;20199;-69
2021/10/30 07:18:40;;;;;;;0.40;0.40;;;17.70;99.90;;;;;;21185759;27;20219;-69
2021/10/30 07:28:46;;;;;;;0.20;0.10;;;17.90;99.90;;;;;;21151706;28;20600;-67
2021/10/30 07:38:50;;;;;;;0.20;0.00;;;18.10;99.90;;;;;;21149098;28;20258;-70
2021/10/30 07:48:56;;;;;;;0.20;0.00;;;18.30;99.90;;;;;;21149174;28;20237;-69
2021/10/30 07:59:00;;;;;;;0.30;0.20;;;18.50;99.90;;;;;;21147751;28;20232;-69
2021/10/30 08:09:05;;;;;;;0.43;0.43;;;18.50;99.90;;;;;;21129318;28;20753;-69
2021/10/30 08:19:09;;;;;;;0.20;0.00;;;18.40;99.90;;;;;;21183315;27;20218;-69
2021/10/30 08:29:15;;;;;;;0.20;0.00;;;18.50;99.90;;;;;;21240793;27;20187;-70
2021/10/30 08:39:21;;;;;;;2.97;0.77;;;18.50;99.90;;;;;;21248123;27;20238;-69
2021/10/30 08:49:27;;;;;;;0.20;0.00;;;18.60;99.90;;;;;;21246884;27;20681;-69
2021/10/30 08:59:41;;;;;;;0.20;0.00;;;18.70;99.90;;;;;;21244558;27;20752;-68
2021/10/30 09:09:47;;;;;;;0.40;0.07;;;18.70;99.90;;;;;;21258773;27;20183;-69
2021/10/30 09:19:53;;;;;;;0.20;0.00;;;18.50;99.90;;;;;;21276892;27;20234;-70
2021/10/30 09:29:59;;;;;;;0.20;0.10;;;18.40;99.90;;;;;;21155186;28;20312;-68
2021/10/30 09:40:20;;;;;;;0.20;0.10;;;18.50;99.90;;;;;;21219986;27;20584;-69
2021/10/30 09:50:28;;;;;;;0.77;0.70;;;18.80;99.90;;;;;;21222786;27;20544;-69
2021/10/30 10:00:34;;;;;;;0.20;0.20;;;18.90;99.90;;;;;;21226373;27;20218;-69
2021/10/30 10:10:39;;;;;;;0.67;0.40;;;18.90;99.90;;;;;;21203345;27;20225;-69
2021/10/30 10:20:43;;;;;;;0.20;0.00;;;18.80;99.90;;;;;;21178301;27;20223;-72
2021/10/30 10:30:57;;;;;;;0.20;0.00;;;18.70;99.90;;;;;;21154181;27;20197;-71
2021/10/30 10:41:02;;;;;;;1.80;0.73;;;18.70;99.90;;;;;;21236546;27;20237;-71
2021/10/30 10:51:23;;;;;;;0.20;0.03;;;19.10;99.90;;;;;;21202275;27;20190;-70
2021/10/30 11:01:26;;;;;;;3.60;0.37;;;19.10;99.90;;;;;;21235486;27;20691;-70
2021/10/30 11:11:32;;;;;;;0.20;0.03;;;19.10;99.90;;;;;;21178698;27;20192;-70
2021/10/30 11:21:40;;;;;;;0.20;0.03;;;19.20;99.90;;;;;;21201964;27;20219;-72
2021/10/30 11:31:54;;;;;;;0.20;0.00;;;19.20;99.90;;;;;;21233010;27;20193;-73
2021/10/30 11:42:02;;;;;;;0.20;0.00;;;19.40;99.90;;;;;;21234599;27;20714;-72
2021/10/30 11:52:10;;;;;;;0.20;0.00;;;19.50;99.90;;;;;;21233386;28;20210;-72
2021/10/30 12:02:16;;;;;;;0.30;0.10;;;19.50;99.90;;;;;;21219058;27;20222;-71
2021/10/30 12:12:25;;;;;;;0.20;0.00;;;19.50;99.90;;;;;;21248392;27;20602;-77
2021/10/30 12:22:32;;;;;;;0.20;0.10;;;19.50;99.90;;;;;;21249635;27;20287;-78
2021/10/30 12:32:41;;;;;;;0.20;0.00;;;19.40;99.90;;;;;;21230946;27;20230;-78
2021/10/30 12:42:45;;;;;;;0.20;0.10;;;19.80;99.90;;;;;;21246244;27;20249;-79
2021/10/30 12:52:50;;;;;;;0.20;0.00;;;20.40;99.90;;;;;;21248825;27;20391;-79
2021/10/30 13:02:54;;;;;;;2.13;0.97;;;20.80;99.90;;;;;;22636952;22;20239;-81
2021/10/30 13:13:00;;;;;;;0.25;0.20;;;20.90;99.90;;;;;;20994515;28;20692;-79
2021/10/30 13:23:05;;;;;;;0.30;0.30;;;21.00;99.90;;;;;;20974843;28;20239;-78
2021/10/30 13:33:11;;;;;;;1.73;0.73;;;21.20;99.90;;;;;;20973800;28;20196;-78
2021/10/30 13:43:15;;;;;;;0.30;0.20;;;21.60;99.90;;;;;;20973023;28;20228;-81
2021/10/30 13:53:21;;;;;;;0.30;0.30;;;21.90;99.90;;;;;;20974515;28;20192;-83
2021/10/30 14:03:24;;;;;;;0.22;0.22;;;21.70;99.90;;;;;;20991495;28;20256;-77
2021/10/30 14:13:30;;;;;;;0.40;0.40;;;21.90;99.90;;;;;;20990280;28;20649;-78
2021/10/30 14:23:37;;;;;;;0.25;0.20;;;22.60;99.90;;;;;;20988523;28;20213;-77
2021/10/30 14:33:42;;;;;;;0.20;0.00;;;23.50;99.90;;;;;;20985404;28;20184;-78
2021/10/30 14:43:47;;;;;;;0.22;0.10;;;24.90;99.90;;;;;;20983523;28;20552;-79
2021/10/30 14:53:52;;;;;;;0.20;0.10;;;24.60;99.90;;;;;;20977546;28;20191;-75
2021/10/30 15:03:56;;;;;;;0.57;0.22;;;23.20;99.90;;;;;;20980907;28;20232;-81
2021/10/30 15:14:01;;;;;;;0.63;0.32;;;22.30;99.90;;;;;;20982300;28;20201;-79
2021/10/30 15:24:04;;;;;;;0.20;0.20;;;22.10;99.90;;;;;;20981670;28;20668;-78
2021/10/30 15:34:10;;;;;;;0.77;0.77;;;22.20;99.90;;;;;;20981268;28;20292;-77
2021/10/30 15:44:14;;;;;;;0.65;0.38;;;21.90;99.90;;;;;;20981107;28;20335;-77
2021/10/30 15:54:19;;;;;;;0.20;0.20;;;21.60;99.90;;;;;;20979040;28;20197;-77
2021/10/30 16:04:22;;;;;;;0.20;0.10;;;21.40;99.90;;;;;;20980141;28;20284;-80
2021/10/30 16:14:28;;;;;;;0.20;0.10;;;20.90;99.90;;;;;;20980610;28;20197;-78
2021/10/30 16:24:31;;;;;;;1.05;0.52;;;20.60;99.90;;;;;;20979389;28;20323;-79
2021/10/30 16:34:36;;;;;;;0.30;0.30;;;20.30;99.90;;;;;;20980585;28;20199;-78
2021/10/30 16:44:40;;;;;;;0.20;0.10;;;20.20;99.90;;;;;;20980917;28;20225;-81
2021/10/30 16:54:48;;;;;;;0.77;0.67;;;20.10;99.90;;;;;;20996771;28;20558;-81
2021/10/30 17:04:54;;;;;;;0.60;0.40;;;20.20;99.90;;;;;;20994185;28;20228;-83
2021/10/30 17:14:59;;;;;;;35.10;1.50;;;19.80;99.90;;;;;;20996222;28;20204;-79
2021/10/30 17:25:05;;;;;;;2.53;1.23;;;19.50;99.90;;;;;;20991990;28;20246;-77
2021/10/30 17:35:11;;;;;;;0.40;0.30;;;19.40;99.90;;;;;;20991569;28;20545;-77
2021/10/30 17:45:14;;;;;;;0.37;0.37;;;19.50;99.90;;;;;;20989009;28;20223;-78
2021/10/30 17:55:19;;;;;;;2.93;0.33;;;19.60;99.90;;;;;;20985477;28;20280;-78
2021/10/30 18:05:25;;;;;;;0.33;0.27;;;19.60;99.90;;;;;;20986728;28;20256;-76
2021/10/30 18:15:34;;;;;;;0.53;0.53;;;19.30;99.90;;;;;;20990978;28;20272;-80
2021/10/30 18:25:39;;;;;;;0.40;0.40;;;19.20;99.90;;;;;;20984201;28;20224;-79
2021/10/30 18:35:44;;;;;;;0.20;0.10;;;19.10;99.90;;;;;;20982042;28;20193;-76
2021/10/30 18:45:48;;;;;;;0.50;0.27;;;19.00;99.90;;;;;;20983832;28;20208;-80
2021/10/30 18:55:53;;;;;;;0.50;0.37;;;18.90;99.90;;;;;;20985591;28;20649;-80
2021/10/30 19:05:57;;;;;;;0.20;0.00;;;18.80;99.90;;;;;;20984681;28;20620;-78
2021/10/30 19:16:02;;;;;;;0.20;0.10;;;18.70;99.90;;;;;;20966630;28;20213;-81
2021/10/30 19:26:06;;;;;;;0.27;0.13;;;18.60;99.90;;;;;;20981558;28;20225;-81
2021/10/30 19:36:11;;;;;;;0.20;0.10;;;18.90;99.90;;;;;;20958494;28;20296;-82
2021/10/30 19:46:16;;;;;;;0.47;0.47;;;18.70;99.90;;;;;;20980848;28;20232;-81
2021/10/30 19:56:24;;;;;;;0.57;0.57;;;18.40;99.90;;;;;;20981113;28;20258;-80
2021/10/30 20:06:27;;;;;;;0.63;0.60;;;18.30;99.90;;;;;;20978866;28;20240;-80
2021/10/30 20:16:36;;;;;;;0.40;0.40;;;18.00;99.90;;;;;;20983453;28;20243;-79
2021/10/30 20:26:47;;;;;;;0.57;0.53;;;17.90;99.90;;;;;;20993746;28;20232;-80
2021/10/30 20:36:57;;;;;;;1.10;0.70;;;18.10;99.90;;;;;;20998073;28;20193;-84
2021/10/30 20:47:03;;;;;;;1.13;0.40;;;18.20;99.90;;;;;;20998068;28;20614;-80
2021/10/30 20:57:13;;;;;;;2.80;0.77;;;18.10;99.90;;;;;;20992883;28;20296;-79
2021/10/30 21:07:20;;;;;;;0.73;0.73;;;18.00;99.90;;;;;;20993242;28;20234;-78
2021/10/30 21:17:29;;;;;;;0.20;0.13;;;18.50;99.90;;;;;;21008561;28;20280;-79
2021/10/30 21:27:33;;;;;;;0.20;0.10;;;18.50;99.90;;;;;;21004570;28;20244;-78
2021/10/30 21:37:38;;;;;;;1.87;1.33;;;18.50;99.90;;;;;;20998379;28;20207;-79
2021/10/30 21:47:42;;;;;;;1.90;1.80;;;18.40;99.90;;;;;;20992146;28;20681;-77
2021/10/30 21:57:50;;;;;;;0.20;0.00;;;18.30;99.90;;;;;;20978165;28;20203;-79
2021/10/30 22:07:59;;;;;;;0.57;0.30;;;18.30;99.90;;;;;;20967088;28;20685;-82
2021/10/30 22:18:08;;;;;;;0.20;0.00;;;18.10;99.90;;;;;;20983351;28;20274;-79
2021/10/30 22:28:16;;;;;;;0.20;0.00;;;18.10;99.90;;;;;;20985088;28;20220;-78
2021/10/30 22:38:22;;;;;;;0.20;0.10;;;17.90;99.90;;;;;;20987448;28;20292;-78
2021/10/30 22:48:25;;;;;;;0.20;0.20;;;17.70;99.90;;;;;;20976728;28;20633;-80
2021/10/30 22:58:31;;;;;;;0.50;0.43;;;17.70;99.90;;;;;;20986435;28;20287;-79
2021/10/30 23:08:34;;;;;;;0.40;0.30;;;17.60;99.90;;;;;;20975331;28;20255;-78
2021/10/30 23:18:39;;;;;;;0.30;0.23;;;17.60;99.90;;;;;;20982445;28;20295;-82
2021/10/30 23:28:43;;;;;;;3.60;0.70;;;17.50;99.90;;;;;;20985063;28;20263;-79
2021/10/30 23:38:48;;;;;;;0.20;0.20;;;17.50;99.90;;;;;;20982660;28;20271;-80
2021/10/30 23:48:52;;;;;;;1.03;0.67;;;17.50;99.90;;;;;;20983127;28;20232;-80
2021/10/30 23:59:11;;;;;;;0.20;0.10;;;17.40;99.90;;;;;;20982506;28;20319;-79
